Time;durP1;ratioP1;P1;durP2;ratioP2;P2;SDS_P1;SDS_P2;PMS_P1;PMS_P2;Temp;Humidity;BMP_temperature;BMP_pressure;BME280_temperature;BME280_humidity;BME280_pressure;Samples;Min_cycle;Max_cycle;Signal;HPM_P1;HPM_P2
2023/05/02 00:02:16;;;;;;;0.50;0.40;;;;;;;11.11;100.00;95813.72;5032615;28;20510;-61
2023/05/02 00:04:45;;;;;;;0.40;0.30;;;;;;;11.02;100.00;95799.38;5032817;28;20475;-61
2023/05/02 00:07:13;;;;;;;0.40;0.30;;;;;;;11.32;100.00;95810.09;5032438;28;20936;-61
2023/05/02 00:09:42;;;;;;;0.40;0.20;;;;;;;11.37;100.00;95812.75;5032785;28;20416;-60
2023/05/02 00:12:10;;;;;;;1.13;0.30;;;;;;;11.56;100.00;95817.56;5032678;28;20458;-61
2023/05/02 00:14:40;;;;;;;0.40;0.33;;;;;;;11.43;100.00;95814.34;5032635;28;20518;-60
2023/05/02 00:17:08;;;;;;;0.40;0.30;;;;;;;11.55;100.00;95800.84;5032347;28;20550;-61
2023/05/02 00:19:38;;;;;;;0.30;0.20;;;;;;;11.62;100.00;95813.84;5032345;28;20966;-61
2023/05/02 00:22:07;;;;;;;0.40;0.30;;;;;;;11.55;100.00;95822.06;5032320;28;20431;-61
2023/05/02 00:24:35;;;;;;;0.40;0.20;;;;;;;11.57;100.00;95819.16;5032083;28;20837;-61
2023/05/02 00:27:05;;;;;;;5.90;0.30;;;;;;;11.53;100.00;95812.78;5032216;28;20937;-60
2023/05/02 00:29:33;;;;;;;0.97;0.47;;;;;;;11.59;100.00;95825.78;5032213;28;20423;-61
2023/05/02 00:32:03;;;;;;;0.97;0.50;;;;;;;11.58;100.00;95826.88;5032520;28;20778;-60
2023/05/02 00:34:31;;;;;;;0.40;0.30;;;;;;;11.49;100.00;95823.91;5032155;28;20827;-60
2023/05/02 00:36:59;;;;;;;0.30;0.20;;;;;;;11.45;100.00;95828.16;5032322;28;20432;-60
2023/05/02 00:39:28;;;;;;;0.40;0.40;;;;;;;11.40;100.00;95830.81;5032343;28;20424;-60
2023/05/02 00:42:00;;;;;;;0.40;0.30;;;;;;;11.30;100.00;95814.84;5032206;28;20462;-60
2023/05/02 00:44:28;;;;;;;5.93;0.60;;;;;;;11.37;100.00;95831.31;5032268;28;20911;-60
2023/05/02 00:46:57;;;;;;;0.30;0.20;;;;;;;11.46;100.00;95834.25;5031784;28;20479;-60
2023/05/02 00:49:27;;;;;;;0.30;0.20;;;;;;;11.44;100.00;95841.69;5030878;28;20939;-61
2023/05/02 00:51:55;;;;;;;0.30;0.20;;;;;;;11.44;100.00;95842.50;5031112;28;20427;-60
2023/05/02 00:54:23;;;;;;;0.40;0.20;;;;;;;11.43;100.00;95835.56;5030594;28;20423;-61
2023/05/02 00:56:52;;;;;;;0.40;0.40;;;;;;;11.39;100.00;95839.81;5030932;28;20968;-62
2023/05/02 00:59:20;;;;;;;0.40;0.30;;;;;;;11.35;100.00;95840.59;5031081;28;20510;-61
2023/05/02 01:02:00;;;;;;;0.50;0.50;;;;;;;11.27;100.00;95833.94;5031557;28;20523;-62
2023/05/02 01:04:40;;;;;;;0.40;0.40;;;;;;;11.14;100.00;95833.63;5031743;28;20493;-61
2023/05/02 01:07:26;;;;;;;0.30;0.20;;;;;;;10.81;100.00;95774.63;5031629;28;20471;-61
2023/05/02 01:10:04;;;;;;;0.30;0.20;;;;;;;11.33;100.00;95826.81;5031841;28;20431;-61
2023/05/02 01:12:41;;;;;;;0.40;0.30;;;;;;;11.37;100.00;95833.97;5031710;28;20469;-61
2023/05/02 01:15:13;;;;;;;0.40;0.30;;;;;;;11.01;100.00;95837.56;5031607;28;20427;-61
2023/05/02 01:17:44;;;;;;;0.40;0.30;;;;;;;10.49;100.00;95842.84;5031725;28;20924;-62
2023/05/02 01:20:17;;;;;;;0.40;0.40;;;;;;;10.45;100.00;95844.41;5031601;28;20430;-62
2023/05/02 01:22:46;;;;;;;0.30;0.30;;;;;;;10.00;100.00;95791.06;5032021;28;20427;-62
2023/05/02 01:25:22;;;;;;;2.50;0.40;;;;;;;10.03;100.00;95848.81;5031190;28;21014;-62
2023/05/02 01:28:02;;;;;;;0.40;0.40;;;;;;;10.24;100.00;95834.72;5031568;28;20458;-62
2023/05/02 01:30:34;;;;;;;0.60;0.57;;;;;;;10.63;100.00;95836.03;5031548;28;21026;-62
2023/05/02 01:33:04;;;;;;;0.40;0.30;;;;;;;10.73;100.00;95836.09;5031487;28;20431;-62
2023/05/02 01:35:35;;;;;;;0.50;0.30;;;;;;;10.81;100.00;95832.97;5031050;28;20440;-62
2023/05/02 01:38:06;;;;;;;0.40;0.30;;;;;;;10.87;100.00;95832.97;5031334;28;21116;-62
2023/05/02 01:40:37;;;;;;;0.30;0.30;;;;;;;10.88;100.00;95838.00;5031880;28;20432;-62
2023/05/02 01:43:07;;;;;;;0.40;0.40;;;;;;;10.92;100.00;95833.00;5031394;28;20432;-62
2023/05/02 01:45:39;;;;;;;0.50;0.50;;;;;;;10.81;100.00;95830.31;5030289;28;21011;-61
2023/05/02 01:48:09;;;;;;;6.53;0.70;;;;;;;10.80;100.00;95818.09;5030629;28;21268;-62
2023/05/02 01:50:39;;;;;;;0.30;0.20;;;;;;;10.79;100.00;95818.38;5030811;28;20465;-61
2023/05/02 01:53:12;;;;;;;0.40;0.30;;;;;;;10.56;100.00;95814.25;5030771;28;20920;-62
2023/05/02 01:55:44;;;;;;;0.40;0.30;;;;;;;10.69;100.00;95829.72;5031150;28;20431;-62
2023/05/02 01:58:14;;;;;;;0.33;0.23;;;;;;;10.66;100.00;95829.41;5031097;28;20442;-61
2023/05/02 02:00:46;;;;;;;0.40;0.33;;;;;;;10.70;100.00;95827.88;5031537;28;20448;-61
2023/05/02 02:03:17;;;;;;;0.40;0.30;;;;;;;10.82;100.00;95828.47;5030898;28;20459;-61
2023/05/02 02:05:48;;;;;;;0.40;0.30;;;;;;;10.81;100.00;95826.84;5032847;28;20474;-62
2023/05/02 02:08:16;;;;;;;0.83;0.70;;;;;;;10.41;100.00;95834.56;5034821;28;20558;-62
2023/05/02 02:10:50;;;;;;;0.40;0.20;;;;;;;10.66;100.00;95837.38;5034768;28;20936;-61
2023/05/02 02:13:33;;;;;;;2.83;0.30;;;;;;;10.48;100.00;95833.28;5035021;28;20466;-61
2023/05/02 02:16:07;;;;;;;0.40;0.30;;;;;;;10.63;100.00;95835.22;5034499;28;20462;-62
2023/05/02 02:18:38;;;;;;;0.50;0.40;;;;;;;10.64;100.00;95832.34;5034433;28;20426;-62
2023/05/02 02:21:09;;;;;;;0.40;0.30;;;;;;;10.17;100.00;95778.50;5034157;28;20432;-62
2023/05/02 02:23:42;;;;;;;1.43;0.30;;;;;;;10.11;100.00;95801.50;5034732;28;20427;-62
2023/05/02 02:26:12;;;;;;;0.40;0.30;;;;;;;10.48;100.00;95832.50;5034224;28;20490;-62
2023/05/02 02:28:41;;;;;;;0.60;0.60;;;;;;;10.40;100.00;95825.81;5033989;28;20478;-62
2023/05/02 02:31:11;;;;;;;0.40;0.30;;;;;;;9.92;100.00;95833.88;5034103;28;20910;-62
2023/05/02 02:33:40;;;;;;;0.40;0.40;;;;;;;9.88;100.00;95838.09;5034355;28;20496;-62
2023/05/02 02:36:19;;;;;;;0.40;0.30;;;;;;;9.95;100.00;95838.69;5034239;28;20427;-61
2023/05/02 02:38:56;;;;;;;0.47;0.40;;;;;;;9.70;100.00;95839.25;5034070;28;20523;-62
2023/05/02 02:41:30;;;;;;;1.50;0.60;;;;;;;9.41;100.00;95843.22;5033851;28;20419;-61
2023/05/02 02:44:07;;;;;;;0.40;0.30;;;;;;;9.19;100.00;95845.06;5033625;28;20424;-61
2023/05/02 02:46:48;;;;;;;0.40;0.33;;;;;;;9.00;100.00;95849.09;5033928;28;20991;-61
2023/05/02 02:49:26;;;;;;;0.50;0.30;;;;;;;8.88;100.00;95839.41;5033738;28;20492;-61
2023/05/02 02:52:02;;;;;;;0.40;0.40;;;;;;;9.23;100.00;95843.53;5034018;28;20466;-61
2023/05/02 02:54:35;;;;;;;0.70;0.40;;;;;;;9.17;100.00;95849.81;5033838;28;20470;-61
2023/05/02 02:57:12;;;;;;;0.60;0.50;;;;;;;9.17;100.00;95852.47;5033745;28;20430;-62
2023/05/02 02:59:47;;;;;;;0.57;0.57;;;;;;;9.25;100.00;95846.72;5033647;28;20446;-60
2023/05/02 03:02:19;;;;;;;0.37;0.30;;;;;;;9.23;100.00;95840.91;5033964;28;20427;-60
2023/05/02 03:04:51;;;;;;;0.40;0.40;;;;;;;9.31;100.00;95843.88;5033888;28;20435;-59
2023/05/02 03:07:19;;;;;;;0.43;0.30;;;;;;;9.42;100.00;95856.19;5033370;28;20579;-60
2023/05/02 03:09:48;;;;;;;0.40;0.30;;;;;;;9.47;100.00;95855.44;5033468;28;20428;-60
2023/05/02 03:12:16;;;;;;;0.50;0.37;;;;;;;9.86;100.00;95854.25;5033299;28;20523;-60
2023/05/02 03:14:45;;;;;;;0.40;0.40;;;;;;;10.12;100.00;95857.91;5033323;28;20947;-60
2023/05/02 03:17:13;;;;;;;0.30;0.23;;;;;;;10.00;100.00;95859.91;5032271;28;20957;-60
2023/05/02 03:19:43;;;;;;;0.40;0.30;;;;;;;10.25;100.00;95864.66;5033643;28;20474;-60
2023/05/02 03:22:11;;;;;;;0.60;0.40;;;;;;;10.33;100.00;95859.69;5033490;28;20428;-61
2023/05/02 03:24:39;;;;;;;0.40;0.40;;;;;;;10.64;100.00;95858.03;5033148;28;20469;-61
2023/05/02 03:27:08;;;;;;;0.30;0.30;;;;;;;10.87;100.00;95844.41;5032965;28;20511;-60
2023/05/02 03:29:36;;;;;;;0.30;0.20;;;;;;;10.97;100.00;95852.41;5033342;28;20455;-60
2023/05/02 03:32:04;;;;;;;0.40;0.30;;;;;;;10.85;100.00;95855.25;5033025;28;20435;-60
2023/05/02 03:34:33;;;;;;;0.40;0.30;;;;;;;11.06;100.00;95845.53;5032807;28;20440;-61
2023/05/02 03:37:03;;;;;;;0.40;0.30;;;;;;;11.04;100.00;95858.25;5032995;28;20451;-60
2023/05/02 03:39:31;;;;;;;0.40;0.40;;;;;;;10.71;100.00;95859.41;5032911;28;20437;-60
2023/05/02 03:42:00;;;;;;;0.30;0.20;;;;;;;10.61;100.00;95861.19;5033120;28;20474;-61
2023/05/02 03:44:28;;;;;;;0.90;0.90;;;;;;;10.78;100.00;95867.94;5032937;28;20432;-61
2023/05/02 03:46:57;;;;;;;0.30;0.20;;;;;;;10.47;100.00;95860.06;5032883;28;21007;-60
2023/05/02 03:49:25;;;;;;;0.57;0.33;;;;;;;10.57;100.00;95860.94;5032817;28;20463;-61
2023/05/02 03:51:54;;;;;;;0.63;0.63;;;;;;;10.17;100.00;95872.00;5032829;28;20459;-60
2023/05/02 03:54:23;;;;;;;1.80;1.70;;;;;;;10.43;100.00;95869.56;5032841;28;20471;-60
2023/05/02 03:56:53;;;;;;;0.53;0.53;;;;;;;10.32;100.00;95860.75;5051799;28;20458;-60
2023/05/02 03:59:22;;;;;;;1.73;1.63;;;;;;;10.72;100.00;95879.59;5052582;28;20434;-60
2023/05/02 04:01:50;;;;;;;2.30;0.70;;;;;;;10.37;100.00;95860.78;5052661;28;20423;-60
2023/05/02 04:04:19;;;;;;;0.60;0.50;;;;;;;10.46;100.00;95883.09;5052501;28;20438;-60
2023/05/02 04:06:47;;;;;;;0.40;0.40;;;;;;;9.98;100.00;95881.38;5052571;28;20548;-60
2023/05/02 04:09:15;;;;;;;0.40;0.30;;;;;;;10.21;100.00;95885.56;5052487;28;20429;-61
2023/05/02 04:11:46;;;;;;;0.57;0.57;;;;;;;9.86;100.00;95841.00;5052680;28;20418;-61
2023/05/02 04:14:14;;;;;;;0.50;0.30;;;;;;;10.50;100.00;95889.47;5051764;28;20485;-60
2023/05/02 04:16:47;;;;;;;0.70;0.70;;;;;;;10.67;100.00;95878.75;5051558;28;20426;-60
2023/05/02 04:19:17;;;;;;;0.40;0.30;;;;;;;11.01;100.00;95884.50;5052006;28;20513;-59
2023/05/02 04:21:45;;;;;;;0.40;0.30;;;;;;;11.00;100.00;95890.88;5052033;28;20860;-60
2023/05/02 04:24:14;;;;;;;0.40;0.30;;;;;;;11.40;100.00;95891.06;5052004;28;20547;-60
2023/05/02 04:26:42;;;;;;;0.73;0.43;;;;;;;11.71;100.00;95887.47;5052034;28;20470;-60
2023/05/02 04:29:12;;;;;;;0.30;0.30;;;;;;;11.65;100.00;95866.44;5051941;28;20439;-59
2023/05/02 04:31:41;;;;;;;0.40;0.40;;;;;;;11.20;100.00;95841.38;5051759;28;20435;-59
2023/05/02 04:34:09;;;;;;;0.40;0.30;;;;;;;9.86;100.00;95721.88;5051828;28;20430;-59
2023/05/02 04:36:37;;;;;;;0.70;0.40;;;;;;;11.13;100.00;95890.41;5051705;28;20497;-60
2023/05/02 04:39:06;;;;;;;1.37;0.60;;;;;;;10.75;100.00;95891.53;5052086;28;20421;-60
2023/05/02 04:41:34;;;;;;;0.40;0.30;;;;;;;10.48;100.00;95896.91;5051611;28;20438;-59
2023/05/02 04:44:03;;;;;;;2.17;0.73;;;;;;;10.61;100.00;95890.34;5052129;28;20492;-59
2023/05/02 04:46:33;;;;;;;0.30;0.30;;;;;;;10.82;100.00;95895.56;5050855;28;20430;-60
2023/05/02 04:49:01;;;;;;;0.97;0.87;;;;;;;10.82;100.00;95892.09;5052988;28;21075;-60
2023/05/02 04:51:30;;;;;;;0.70;0.70;;;;;;;10.83;100.00;95883.88;5061957;28;20524;-60
2023/05/02 04:53:59;;;;;;;0.40;0.30;;;;;;;11.17;100.00;95894.94;5070468;28;20497;-59
2023/05/02 04:56:27;;;;;;;0.37;0.30;;;;;;;11.50;100.00;95893.75;5071800;28;20433;-59
2023/05/02 04:58:55;;;;;;;0.40;0.30;;;;;;;11.23;100.00;95904.50;5071324;28;20434;-58
2023/05/02 05:01:26;;;;;;;2.77;0.70;;;;;;;11.31;100.00;95896.03;5071480;28;20520;-59
2023/05/02 05:03:56;;;;;;;0.40;0.30;;;;;;;11.40;100.00;95902.47;5045173;28;20491;-58
2023/05/02 05:06:25;;;;;;;0.43;0.43;;;;;;;11.45;100.00;95899.03;5071536;28;20517;-58
2023/05/02 05:08:53;;;;;;;0.77;0.77;;;;;;;11.58;100.00;95895.09;5071906;28;20512;-59
2023/05/02 05:11:22;;;;;;;0.70;0.53;;;;;;;11.42;100.00;95900.34;5069553;28;20472;-59
2023/05/02 05:13:50;;;;;;;0.40;0.30;;;;;;;11.31;100.00;95903.19;5070448;28;21034;-59
2023/05/02 05:16:18;;;;;;;0.40;0.30;;;;;;;11.55;100.00;95896.41;5071520;28;20464;-59
2023/05/02 05:18:48;;;;;;;0.83;0.67;;;;;;;11.79;100.00;95896.78;5071202;28;20444;-58
2023/05/02 05:21:17;;;;;;;2.00;0.87;;;;;;;11.84;100.00;95902.09;5071115;28;20465;-59
2023/05/02 05:23:46;;;;;;;0.60;0.40;;;;;;;12.17;100.00;95895.50;5071144;28;20438;-60
2023/05/02 05:26:16;;;;;;;0.43;0.43;;;;;;;12.12;100.00;95885.66;5071022;28;20833;-60
2023/05/02 05:28:44;;;;;;;0.40;0.30;;;;;;;12.60;100.00;95898.41;5071182;28;20957;-60
2023/05/02 05:31:15;;;;;;;0.57;0.57;;;;;;;12.79;100.00;95908.50;5071283;28;20480;-54
2023/05/02 05:33:44;;;;;;;0.80;0.53;;;;;;;12.89;100.00;95890.69;5070906;28;20444;-55
2023/05/02 05:36:14;;;;;;;0.40;0.30;;;;;;;12.73;100.00;95905.84;5071182;28;20981;-64
2023/05/02 05:38:44;;;;;;;0.67;0.50;;;;;;;12.89;100.00;95852.63;5071067;28;20465;-63
2023/05/02 05:41:12;;;;;;;0.57;0.57;;;;;;;12.94;97.89;95889.88;5073863;28;20441;-64
2023/05/02 05:43:41;;;;;;;0.60;0.60;;;;;;;12.31;99.79;95836.25;5074107;28;20433;-65
2023/05/02 05:46:09;;;;;;;0.30;0.30;;;;;;;12.90;97.64;95902.13;5074676;28;20439;-65
2023/05/02 05:48:37;;;;;;;0.60;0.50;;;;;;;12.58;99.55;95905.88;5074432;28;20476;-65
2023/05/02 05:51:06;;;;;;;1.93;1.43;;;;;;;12.19;100.00;95890.72;5074310;28;20441;-63
2023/05/02 05:53:34;;;;;;;0.50;0.40;;;;;;;12.43;100.00;95902.41;5074409;28;20525;-64
2023/05/02 05:56:10;;;;;;;0.67;0.67;;;;;;;12.63;100.00;95895.22;5074341;28;20445;-63
2023/05/02 05:58:39;;;;;;;0.83;0.40;;;;;;;12.82;100.00;95895.47;5074405;28;20441;-63
2023/05/02 06:01:08;;;;;;;0.93;0.93;;;;;;;13.21;100.00;95899.13;5074707;28;20536;-62
2023/05/02 06:03:36;;;;;;;1.30;0.50;;;;;;;12.85;100.00;95899.47;5047681;28;20437;-62
2023/05/02 06:06:05;;;;;;;0.50;0.43;;;;;;;12.67;100.00;95903.50;5074441;28;20468;-62
2023/05/02 06:08:34;;;;;;;1.07;1.07;;;;;;;12.75;100.00;95903.72;5074229;28;20522;-63
2023/05/02 06:11:02;;;;;;;0.60;0.50;;;;;;;13.03;99.67;95906.88;5074100;28;20467;-63
2023/05/02 06:13:32;;;;;;;0.60;0.60;;;;;;;13.04;98.57;95900.47;5074046;28;20496;-63
2023/05/02 06:16:01;;;;;;;0.40;0.20;;;;;;;12.79;100.00;95916.50;5075234;28;20454;-63
2023/05/02 06:18:30;;;;;;;0.40;0.30;;;;;;;13.46;100.00;95903.56;5074611;28;20871;-64
2023/05/02 06:21:03;;;;;;;0.50;0.50;;;;;;;12.40;96.75;95740.78;5074301;28;20520;-65
2023/05/02 06:23:31;;;;;;;1.23;1.13;;;;;;;13.38;98.33;95906.81;5074130;28;20958;-65
2023/05/02 06:26:01;;;;;;;0.37;0.30;;;;;;;13.29;100.00;95903.91;5073662;28;20479;-66
2023/05/02 06:28:29;;;;;;;0.40;0.30;;;;;;;14.34;94.36;95900.97;5074658;28;20907;-66
2023/05/02 06:31:00;;;;;;;2.57;0.40;;;;;;;14.82;89.83;95896.56;5073827;28;20559;-66
2023/05/02 06:33:30;;;;;;;0.40;0.30;;;;;;;14.59;89.21;95866.09;5073833;28;20441;-66
2023/05/02 06:35:59;;;;;;;1.27;1.17;;;;;;;15.12;86.66;95890.94;5073758;28;20487;-65
2023/05/02 06:38:29;;;;;;;0.40;0.30;;;;;;;15.76;81.56;95880.53;5073785;28;20452;-66
2023/05/02 06:40:58;;;;;;;0.50;0.50;;;;;;;15.43;81.39;95886.03;5074025;28;20449;-66
2023/05/02 06:43:27;;;;;;;0.70;0.70;;;;;;;16.60;77.83;95877.97;5073495;28;20445;-66
2023/05/02 06:45:56;;;;;;;1.80;1.20;;;;;;;16.23;81.91;95893.00;5074067;28;20521;-59
2023/05/02 06:48:26;;;;;;;0.63;0.63;;;;;;;15.80;78.94;95889.59;5073846;28;20903;-66
2023/05/02 06:50:54;;;;;;;1.30;0.70;;;;;;;15.66;79.41;95874.56;5073613;28;20450;-66
2023/05/02 06:53:23;;;;;;;2.83;0.90;;;;;;;16.33;87.40;95857.25;5072799;28;20440;-56
2023/05/02 06:55:51;;;;;;;1.73;0.50;;;;;;;15.78;80.65;95881.06;5073737;28;20444;-56
2023/05/02 06:58:19;;;;;;;1.00;0.90;;;;;;;16.03;78.11;95873.78;5072986;28;20887;-57
2023/05/02 07:00:49;;;;;;;0.40;0.30;;;;;;;16.41;80.86;95868.09;5073693;28;20448;-57
2023/05/02 07:03:17;;;;;;;1.07;1.07;;;;;;;16.92;75.28;95875.31;5073056;28;20433;-57
2023/05/02 07:05:47;;;;;;;0.93;0.87;;;;;;;16.60;74.86;95867.28;5073688;28;21012;-56
2023/05/02 07:08:15;;;;;;;0.63;0.63;;;;;;;17.87;75.48;95863.78;5072642;28;20437;-56
2023/05/02 07:10:43;;;;;;;1.00;0.90;;;;;;;17.25;74.19;95868.78;5072451;28;20869;-55
2023/05/02 07:13:11;;;;;;;0.50;0.30;;;;;;;17.64;70.96;95871.78;5073544;28;20433;-65
2023/05/02 07:15:40;;;;;;;0.50;0.40;;;;;;;17.73;70.04;95864.59;5073711;28;20886;-66
2023/05/02 07:18:08;;;;;;;1.60;1.60;;;;;;;18.20;70.50;95874.03;5073223;28;20478;-65
2023/05/02 07:20:37;;;;;;;0.60;0.60;;;;;;;18.11;67.43;95877.75;5073061;28;20464;-66
2023/05/02 07:23:07;;;;;;;0.40;0.40;;;;;;;18.80;67.90;95868.31;5073361;28;20433;-69
2023/05/02 07:25:36;;;;;;;1.37;1.27;;;;;;;18.34;66.41;95868.63;5072493;28;20881;-70
2023/05/02 07:28:05;;;;;;;2.60;1.60;;;;;;;18.80;64.60;95869.09;5073013;28;20473;-71
2023/05/02 07:30:33;;;;;;;2.87;0.60;;;;;;;17.79;65.35;95835.78;5072778;28;20542;-70
2023/05/02 07:33:01;;;;;;;2.43;0.80;;;;;;;18.69;64.89;95869.69;5073358;28;20617;-70
2023/05/02 07:35:30;;;;;;;1.20;0.53;;;;;;;20.40;60.35;95864.06;5072565;28;20445;-69
2023/05/02 07:37:58;;;;;;;1.10;0.93;;;;;;;20.26;59.36;95865.00;5072738;28;20433;-68
2023/05/02 07:40:28;;;;;;;0.50;0.50;;;;;;;21.02;59.15;95859.84;5072581;28;20442;-66
2023/05/02 07:42:58;;;;;;;1.53;1.20;;;;;;;20.43;58.86;95861.53;5072555;28;20529;-67
2023/05/02 07:45:26;;;;;;;0.60;0.60;;;;;;;20.90;57.60;95857.00;5073037;28;20874;-69
2023/05/02 07:47:55;;;;;;;0.53;0.40;;;;;;;21.44;57.52;95855.41;5072605;28;20468;-72
2023/05/02 07:50:24;;;;;;;1.87;1.00;;;;;;;20.98;58.40;95815.75;5072354;28;20477;-70
2023/05/02 07:52:53;;;;;;;0.63;0.50;;;;;;;21.31;55.85;95864.50;5072975;28;20464;-69
2023/05/02 07:55:21;;;;;;;0.50;0.37;;;;;;;22.60;53.76;95864.47;5072347;28;20437;-67
2023/05/02 07:57:51;;;;;;;1.10;1.10;;;;;;;22.89;52.84;95858.19;5072340;28;20645;-66
2023/05/02 08:00:20;;;;;;;1.00;0.90;;;;;;;22.83;52.35;95862.22;5070927;28;20434;-65
2023/05/02 08:02:48;;;;;;;0.50;0.30;;;;;;;22.94;52.86;95841.75;5071198;28;20521;-64
2023/05/02 08:05:16;;;;;;;0.53;0.43;;;;;;;21.74;51.94;95865.09;5072188;28;20437;-64
2023/05/02 08:07:45;;;;;;;0.40;0.30;;;;;;;22.60;51.97;95857.16;5071907;28;20495;-66
2023/05/02 08:10:14;;;;;;;0.67;0.63;;;;;;;22.67;50.25;95852.03;5071863;28;20565;-64
2023/05/02 08:12:42;;;;;;;0.83;0.83;;;;;;;23.04;49.76;95852.94;5071834;28;20466;-70
2023/05/02 08:15:13;;;;;;;1.10;0.70;;;;;;;23.05;50.35;95856.41;5072350;28;20442;-70
2023/05/02 08:17:41;;;;;;;0.50;0.40;;;;;;;22.70;49.53;95810.03;5072153;28;20429;-65
2023/05/02 08:20:10;;;;;;;0.40;0.30;;;;;;;23.61;49.73;95839.38;5072020;28;20502;-65
2023/05/02 08:22:39;;;;;;;0.40;0.30;;;;;;;24.18;48.14;95835.72;5071877;28;20888;-66
2023/05/02 08:25:07;;;;;;;0.70;0.60;;;;;;;22.47;49.78;95844.72;5071608;28;20552;-65
2023/05/02 08:27:35;;;;;;;0.40;0.30;;;;;;;23.17;50.74;95846.41;5071679;28;20521;-64
2023/05/02 08:30:04;;;;;;;0.50;0.37;;;;;;;24.59;47.63;95836.13;5071893;28;20548;-61
2023/05/02 08:32:36;;;;;;;0.60;0.50;;;;;;;23.23;48.99;95844.28;5072224;28;20574;-60
2023/05/02 08:35:06;;;;;;;0.50;0.50;;;;;;;23.04;48.41;95835.94;5071729;28;20480;-58
2023/05/02 08:37:35;;;;;;;0.67;0.67;;;;;;;24.26;47.73;95829.38;5071372;28;20445;-58
2023/05/02 08:40:03;;;;;;;0.50;0.50;;;;;;;25.20;47.67;95816.81;5071758;28;20434;-57
2023/05/02 08:42:33;;;;;;;0.50;0.33;;;;;;;26.52;43.63;95816.72;5071410;28;20529;-63
2023/05/02 08:45:02;;;;;;;2.83;0.60;;;;;;;25.16;39.25;95767.91;5071634;28;20875;-63
2023/05/02 08:47:32;;;;;;;0.43;0.40;;;;;;;24.18;40.10;95768.00;5071626;28;20520;-63
2023/05/02 08:50:04;;;;;;;0.50;0.40;;;;;;;24.85;40.20;95815.91;5070413;28;20543;-63
2023/05/02 08:52:33;;;;;;;1.27;0.30;;;;;;;25.75;40.15;95810.41;5071416;28;20445;-68
2023/05/02 08:55:02;;;;;;;0.50;0.50;;;;;;;24.39;40.64;95810.00;5071569;28;20446;-63
2023/05/02 08:57:31;;;;;;;0.50;0.30;;;;;;;24.09;40.70;95814.16;5071817;28;20833;-63
2023/05/02 08:59:59;;;;;;;2.20;1.23;;;;;;;24.00;39.78;95805.38;5070811;28;20437;-64
2023/05/02 09:02:52;;;;;;;0.57;0.40;;;;;;;23.06;39.99;95822.84;5071145;28;20441;-65
2023/05/02 09:05:24;;;;;;;0.60;0.40;;;;;;;22.13;40.58;95828.81;5045150;28;20448;-66
2023/05/02 09:07:53;;;;;;;0.60;0.60;;;;;;;22.35;41.88;95819.56;5071318;28;20528;-66
2023/05/02 09:10:22;;;;;;;0.50;0.50;;;;;;;23.66;40.45;95803.94;5071141;28;20488;-63
2023/05/02 09:12:50;;;;;;;0.80;0.33;;;;;;;23.82;40.25;95799.44;5071063;28;20442;-62
2023/05/02 09:15:20;;;;;;;0.60;0.50;;;;;;;23.97;38.65;95771.63;5072860;28;20446;-61
2023/05/02 09:17:48;;;;;;;0.60;0.60;;;;;;;24.17;39.21;95798.91;5075441;28;20533;-61
2023/05/02 09:20:17;;;;;;;0.40;0.40;;;;;;;23.59;39.83;95779.38;5075800;28;20445;-60
2023/05/02 09:22:51;;;;;;;0.60;0.60;;;;;;;25.43;39.18;95789.84;5074823;28;20480;-60
2023/05/02 09:25:20;;;;;;;0.40;0.33;;;;;;;23.78;39.20;95695.66;5074316;28;21177;-61
2023/05/02 09:27:53;;;;;;;0.60;0.43;;;;;;;23.23;39.83;95738.78;5075109;28;20465;-61
2023/05/02 09:30:24;;;;;;;0.50;0.40;;;;;;;23.07;40.51;95765.72;5075228;28;20551;-62
2023/05/02 09:32:54;;;;;;;0.70;0.50;;;;;;;23.49;40.24;95760.13;5074823;28;20511;-63
2023/05/02 09:35:26;;;;;;;0.50;0.50;;;;;;;23.11;40.80;95755.03;5074771;28;20942;-63
2023/05/02 09:37:56;;;;;;;0.60;0.50;;;;;;;23.13;39.94;95761.69;5074574;28;20619;-61
2023/05/02 09:40:26;;;;;;;0.47;0.40;;;;;;;24.12;38.55;95750.41;5061274;28;20468;-64
2023/05/02 09:42:56;;;;;;;0.50;0.50;;;;;;;24.01;39.13;95758.97;5074473;28;20499;-64
2023/05/02 09:45:26;;;;;;;0.83;0.83;;;;;;;24.51;38.82;95758.47;5074559;28;20495;-63
2023/05/02 09:47:54;;;;;;;0.43;0.37;;;;;;;25.05;38.88;95720.72;5074935;28;20437;-62
2023/05/02 09:50:36;;;;;;;0.40;0.30;;;;;;;26.44;35.53;95756.00;5074561;28;20510;-61
2023/05/02 09:53:08;;;;;;;0.77;0.77;;;;;;;25.99;36.29;95752.31;5074565;28;21002;-61
2023/05/02 09:55:37;;;;;;;0.50;0.40;;;;;;;26.77;34.53;95750.03;5074886;28;20437;-60
2023/05/02 09:58:06;;;;;;;0.57;0.47;;;;;;;25.98;33.44;95751.56;5074601;28;20438;-60
2023/05/02 10:00:42;;;;;;;0.60;0.40;;;;;;;25.58;33.74;95753.75;5074685;28;20735;-60
2023/05/02 10:03:14;;;;;;;0.40;0.40;;;;;;;26.08;34.88;95745.56;5073939;28;20437;-61
2023/05/02 10:05:44;;;;;;;0.47;0.37;;;;;;;26.67;34.43;95742.44;5074695;28;20444;-61
2023/05/02 10:08:16;;;;;;;0.50;0.40;;;;;;;25.84;34.22;95734.97;5072362;28;20456;-60
2023/05/02 10:10:50;;;;;;;0.43;0.30;;;;;;;25.83;35.43;95707.00;5074472;28;20548;-59
2023/05/02 10:13:21;;;;;;;0.40;0.30;;;;;;;24.86;38.42;95736.94;5074154;28;20451;-55
2023/05/02 10:15:54;;;;;;;0.60;0.60;;;;;;;25.42;36.11;95734.00;5073851;28;20441;-53
2023/05/02 10:18:28;;;;;;;0.60;0.40;;;;;;;25.62;35.01;95735.66;5074521;28;20870;-60
2023/05/02 10:20:58;;;;;;;0.40;0.40;;;;;;;25.53;34.49;95716.81;5072839;28;20528;-56
2023/05/02 10:23:29;;;;;;;0.60;0.47;;;;;;;24.72;36.01;95735.78;5063149;28;20481;-64
2023/05/02 10:25:59;;;;;;;0.40;0.40;;;;;;;25.27;34.24;95723.97;5074035;28;20949;-60
2023/05/02 10:28:28;;;;;;;0.50;0.40;;;;;;;24.33;35.44;95721.19;5074098;28;20446;-58
2023/05/02 10:30:58;;;;;;;0.50;0.50;;;;;;;24.22;36.18;95718.19;5073931;28;20556;-58
2023/05/02 10:33:28;;;;;;;0.70;0.40;;;;;;;24.22;36.54;95714.69;5074103;28;20877;-56
2023/05/02 10:35:57;;;;;;;0.40;0.30;;;;;;;25.74;35.16;95713.78;5074032;28;20468;-60
2023/05/02 10:38:26;;;;;;;0.50;0.40;;;;;;;26.90;34.16;95710.63;5074133;28;20441;-57
2023/05/02 10:41:01;;;;;;;0.40;0.30;;;;;;;25.48;33.93;95705.47;5073142;28;20437;-56
2023/05/02 10:43:34;;;;;;;0.60;0.60;;;;;;;25.91;33.14;95696.31;5071052;28;20517;-57
2023/05/02 10:46:02;;;;;;;0.40;0.30;;;;;;;27.19;33.16;95692.03;5064553;28;20476;-56
2023/05/02 10:48:31;;;;;;;0.30;0.30;;;;;;;27.78;34.16;95688.63;5073375;28;20437;-56
2023/05/02 10:51:00;;;;;;;0.40;0.30;;;;;;;26.95;31.54;95577.00;5074122;28;20576;-56
2023/05/02 10:53:31;;;;;;;0.40;0.40;;;;;;;27.07;32.04;95685.63;5073177;28;20433;-55
2023/05/02 10:56:12;;;;;;;0.40;0.40;;;;;;;26.44;32.26;95693.47;5073408;28;20452;-55
2023/05/02 10:58:41;;;;;;;0.83;0.30;;;;;;;26.95;32.37;95671.44;5049616;28;20438;-56
2023/05/02 11:01:40;;;;;;;0.40;0.30;;;;;;;27.99;30.81;95675.25;5073373;28;20774;-55
2023/05/02 11:04:10;;;;;;;0.40;0.40;;;;;;;26.74;31.45;95677.28;5064692;28;20555;-58
2023/05/02 11:07:12;;;;;;;0.40;0.30;;;;;;;26.53;31.45;95541.00;5046855;28;20488;-55
2023/05/02 11:09:40;;;;;;;0.40;0.40;;;;;;;26.94;30.89;95680.75;5072630;28;20517;-57
2023/05/02 11:12:10;;;;;;;0.30;0.20;;;;;;;26.71;31.30;95663.66;5073258;28;20481;-56
2023/05/02 11:14:48;;;;;;;0.40;0.30;;;;;;;26.55;29.80;95652.09;5072889;28;20453;-58
2023/05/02 11:17:17;;;;;;;0.80;0.67;;;;;;;24.84;31.64;95663.28;5072583;28;20437;-58
2023/05/02 11:20:28;;;;;;;0.40;0.30;;;;;;;26.03;31.97;95658.13;5073244;28;20468;-58
2023/05/02 11:23:21;;;;;;;0.40;0.40;;;;;;;26.81;31.83;95654.91;5072982;28;20471;-58
2023/05/02 11:25:51;;;;;;;0.50;0.43;;;;;;;25.90;30.15;95659.41;5072325;28;21202;-58
2023/05/02 11:28:46;;;;;;;0.63;0.40;;;;;;;25.82;31.15;95659.28;5072768;28;20515;-59
2023/05/02 11:32:04;;;;;;;0.40;0.30;;;;;;;26.17;32.40;95658.41;5072615;28;20474;-59
2023/05/02 11:34:44;;;;;;;0.47;0.47;;;;;;;25.62;30.95;95665.06;5049901;28;20434;-59
2023/05/02 11:37:14;;;;;;;0.57;0.57;;;;;;;25.62;30.64;95651.50;5072100;28;20536;-59
2023/05/02 11:39:43;;;;;;;0.70;0.60;;;;;;;26.12;31.42;95553.53;5072530;28;20437;-58
2023/05/02 11:42:27;;;;;;;0.53;0.53;;;;;;;26.20;30.19;95644.13;5072238;28;20449;-60
2023/05/02 11:44:58;;;;;;;0.40;0.40;;;;;;;26.85;30.36;95634.75;5072454;28;20441;-58
2023/05/02 11:47:28;;;;;;;0.50;0.40;;;;;;;26.98;30.94;95627.19;5072343;28;20933;-58